createdAt,value
2023-03-11T00:08:12.932Z,6.80
2023-03-11T00:15:00.753Z,6.70
2023-03-11T00:21:51.645Z,6.60
2023-03-11T00:25:16.187Z,6.50
2023-03-11T00:28:40.891Z,6.50
2023-03-11T00:32:07.501Z,6.50
2023-03-11T00:35:35.160Z,6.40
2023-03-11T00:42:23.606Z,6.40
2023-03-11T00:45:47.181Z,6.40
2023-03-11T00:52:37.425Z,6.40
2023-03-11T01:06:20.261Z,6.40
2023-03-11T01:09:45.928Z,6.30
2023-03-11T01:23:21.722Z,6.20
2023-03-11T01:30:21.536Z,6.10
2023-03-11T01:37:09.812Z,6.10
2023-03-11T01:40:36.795Z,6.10
2023-03-11T01:44:07.843Z,6.00
2023-03-11T01:47:38.739Z,6.00
2023-03-11T01:51:04.518Z,6.00
2023-03-11T01:54:34.747Z,5.90
2023-03-11T01:58:00.638Z,5.90
2023-03-11T02:01:26.296Z,5.90
2023-03-11T02:04:52.703Z,5.80
2023-03-11T02:11:44.408Z,5.70
2023-03-11T02:18:37.822Z,5.60
2023-03-11T02:22:03.353Z,5.60
2023-03-11T02:25:40.425Z,5.60
2023-03-11T02:29:10.484Z,5.60
2023-03-11T02:32:35.673Z,5.60
2023-03-11T02:39:32.417Z,5.60
2023-03-11T02:43:00.479Z,5.50
2023-03-11T02:46:27.297Z,5.50
2023-03-11T02:49:51.095Z,5.50
2023-03-11T02:53:16.186Z,5.40
2023-03-11T02:56:40.178Z,5.30
2023-03-11T03:00:10.981Z,5.30
2023-03-11T03:03:36.677Z,5.20
2023-03-11T03:07:00.480Z,5.10
2023-03-11T03:10:24.418Z,5.10
2023-03-11T03:17:12.446Z,4.90
2023-03-11T03:20:37.682Z,4.80
2023-03-11T03:27:26.305Z,4.80
2023-03-11T03:30:49.967Z,4.70
2023-03-11T03:34:14.244Z,4.70
2023-03-11T03:37:40.240Z,4.60
2023-03-11T03:41:04.540Z,4.60
2023-03-11T03:47:56.272Z,4.50
2023-03-11T03:54:58.889Z,4.40
2023-03-11T03:58:23.260Z,4.40
2023-03-11T04:05:11.701Z,4.40
2023-03-11T04:12:03.323Z,4.30
2023-03-11T04:15:29.516Z,4.30
2023-03-11T04:22:18.306Z,4.30
2023-03-11T04:29:07.589Z,4.30
2023-03-11T04:39:30.531Z,4.20
2023-03-11T04:42:55.102Z,4.20
2023-03-11T04:46:20.046Z,4.20
2023-03-11T04:53:09.012Z,4.10
2023-03-11T04:56:32.965Z,4.10
2023-03-11T05:03:22.530Z,4.00
2023-03-11T05:10:12.969Z,3.90
2023-03-11T05:17:01.273Z,3.90
2023-03-11T05:20:26.752Z,4.00
2023-03-11T05:23:50.532Z,3.90
2023-03-11T05:27:17.768Z,3.90
2023-03-11T05:30:44.090Z,3.90
2023-03-11T05:37:35.258Z,3.80
2023-03-11T05:44:24.754Z,3.80
2023-03-11T05:47:48.997Z,3.70
2023-03-11T05:51:14.609Z,3.70
2023-03-11T05:54:41.540Z,3.70
2023-03-11T05:58:05.334Z,3.70
2023-03-11T06:01:29.503Z,3.70
2023-03-11T06:04:53.578Z,3.70
2023-03-11T06:08:18.647Z,3.70
2023-03-11T06:11:44.985Z,3.70
2023-03-11T06:15:11.998Z,3.70
2023-03-11T06:18:37.202Z,3.70
2023-03-11T06:22:01.731Z,3.70
2023-03-11T06:25:26.353Z,3.80
2023-03-11T06:28:54.113Z,3.80
2023-03-11T06:32:17.870Z,3.80
2023-03-11T06:35:42.580Z,3.90
2023-03-11T06:45:58.542Z,3.90
2023-03-11T06:56:13.650Z,4.10
2023-03-11T06:59:42.418Z,4.10
2023-03-11T07:03:09.721Z,4.20
2023-03-11T07:10:07.049Z,4.30
2023-03-11T07:13:30.977Z,4.30
2023-03-11T07:16:54.770Z,4.40
2023-03-11T07:20:26.394Z,4.40
2023-03-11T07:23:54.862Z,4.50
2023-03-11T07:27:18.801Z,4.60
2023-03-11T07:30:44.560Z,4.60
2023-03-11T07:34:11.346Z,4.70
2023-03-11T07:37:36.318Z,4.80
2023-03-11T07:41:00.759Z,4.80
2023-03-11T07:44:24.348Z,4.80
2023-03-11T07:51:14.932Z,5.10
2023-03-11T07:54:40.329Z,4.80
2023-03-11T08:01:36.112Z,4.90
2023-03-11T08:04:59.936Z,4.90
2023-03-11T08:08:23.418Z,4.90
2023-03-11T08:11:49.841Z,4.90
2023-03-11T08:15:13.487Z,5.20
2023-03-11T08:18:37.099Z,5.70
2023-03-11T08:22:03.532Z,6.30
2023-03-11T08:25:27.359Z,6.60
2023-03-11T10:07:45.741Z,14.80
2023-03-11T10:11:46.931Z,14.90
2023-03-11T10:19:22.758Z,15.70
2023-03-11T10:23:03.384Z,15.60
2023-03-11T10:26:37.028Z,15.30
2023-03-11T10:30:10.872Z,14.80
2023-03-11T10:33:47.632Z,14.30
2023-03-11T10:37:49.991Z,13.80
2023-03-11T10:48:44.565Z,15.30
2023-03-11T10:52:08.405Z,16.30
2023-03-11T10:55:31.988Z,17.30
2023-03-11T10:58:57.500Z,18.20
2023-03-11T11:02:28.065Z,19.00
2023-03-11T11:06:04.888Z,19.80
2023-03-11T11:09:31.078Z,20.60
2023-03-11T11:12:57.694Z,21.20
2023-03-11T11:16:23.242Z,21.50
2023-03-11T11:19:50.278Z,21.40
2023-03-11T11:23:28.092Z,21.40
2023-03-11T11:27:16.148Z,21.20
2023-03-11T11:30:56.146Z,20.30
2023-03-11T11:34:31.433Z,19.60
2023-03-11T11:38:04.327Z,19.20
2023-03-11T11:41:31.546Z,19.20
2023-03-11T11:45:04.555Z,19.40
2023-03-11T11:48:42.159Z,19.70
2023-03-11T11:52:14.627Z,19.70
2023-03-11T11:55:52.558Z,19.50
2023-03-11T11:59:20.102Z,19.20
2023-03-11T12:03:03.259Z,19.50
2023-03-11T12:06:38.891Z,18.30
2023-03-11T12:10:23.796Z,18.30
2023-03-11T12:14:05.933Z,17.20
2023-03-11T12:17:34.828Z,16.50
2023-03-11T12:21:00.646Z,15.80
2023-03-11T12:24:50.069Z,15.20
2023-03-11T12:28:25.706Z,14.60
2023-03-11T12:31:50.722Z,14.10
2023-03-11T12:35:24.715Z,13.70
2023-03-11T12:38:49.964Z,13.40
2023-03-11T12:42:22.612Z,13.40
2023-03-11T12:45:53.237Z,13.00
2023-03-11T12:49:16.875Z,12.80
2023-03-11T12:52:55.214Z,12.70
2023-03-11T12:56:35.088Z,12.60
2023-03-11T13:00:41.718Z,12.60
2023-03-11T13:04:31.345Z,12.60
2023-03-11T13:08:01.759Z,12.70
2023-03-11T13:11:42.713Z,12.70
2023-03-11T13:15:46.441Z,12.80
2023-03-11T13:19:49.924Z,12.60
2023-03-11T13:23:34.823Z,12.50
2023-03-11T13:27:09.937Z,12.50
2023-03-11T13:30:39.984Z,13.40
2023-03-11T13:34:15.876Z,12.40
2023-03-11T13:38:05.926Z,12.40
2023-03-11T13:41:36.027Z,12.40
2023-03-11T13:45:00.875Z,12.40
2023-03-11T13:48:31.730Z,12.40
2023-03-11T13:51:59.358Z,12.20
2023-03-11T13:55:33.114Z,12.20
2023-03-11T13:59:17.417Z,12.00
2023-03-11T14:02:51.003Z,12.00
2023-03-11T14:06:19.717Z,11.90
2023-03-11T14:09:43.691Z,12.00
2023-03-11T14:13:18.352Z,11.90
2023-03-11T14:16:44.324Z,11.90
2023-03-11T14:20:16.329Z,11.90
2023-03-11T14:23:44.880Z,11.90
2023-03-11T14:27:10.884Z,11.90
2023-03-11T14:30:36.360Z,11.80
2023-03-11T14:34:06.706Z,11.80
2023-03-11T14:37:35.514Z,11.60
2023-03-11T14:41:00.796Z,11.50
2023-03-11T14:44:27.579Z,11.50
2023-03-11T14:47:59.486Z,11.40
2023-03-11T14:51:33.339Z,11.40
2023-03-11T14:54:58.933Z,11.40
2023-03-11T14:58:30.470Z,11.40
2023-03-11T15:02:00.546Z,11.40
2023-03-11T15:05:35.766Z,11.40
2023-03-11T15:09:04.350Z,11.40
2023-03-11T15:12:36.470Z,11.50
2023-03-11T15:16:02.382Z,11.50
2023-03-11T15:19:34.621Z,11.50
2023-03-11T15:23:02.522Z,11.50
2023-03-11T15:26:29.873Z,11.50
2023-03-11T15:29:54.602Z,11.40
2023-03-11T15:33:45.671Z,11.30
2023-03-11T15:41:04.004Z,11.20
2023-03-11T15:44:38.249Z,11.20
2023-03-11T15:58:22.681Z,11.10
2023-03-11T16:05:18.254Z,11.00
2023-03-11T16:08:41.952Z,11.00
2023-03-11T16:12:16.107Z,10.90
2023-03-11T16:15:42.264Z,10.80
2023-03-11T16:19:07.161Z,10.70
2023-03-11T16:22:37.518Z,10.60
2023-03-11T16:26:04.383Z,10.50
2023-03-11T16:32:53.614Z,10.30
2023-03-11T16:43:08.741Z,10.10
2023-03-11T16:46:32.304Z,10.00
2023-03-11T16:49:57.189Z,10.00
2023-03-11T16:53:20.859Z,10.00
2023-03-11T17:00:11.120Z,9.80
2023-03-11T17:07:09.305Z,9.80
2023-03-11T17:10:39.137Z,9.70
2023-03-11T17:21:08.193Z,9.60
2023-03-11T17:24:33.189Z,9.50
2023-03-11T17:31:20.780Z,9.40
2023-03-11T17:34:44.586Z,9.40
2023-03-11T17:38:08.285Z,9.30
2023-03-11T17:41:33.692Z,9.20
2023-03-11T17:44:58.595Z,9.20
2023-03-11T17:48:22.319Z,9.10
2023-03-11T17:55:11.097Z,8.90
2023-03-11T17:58:36.928Z,8.80
2023-03-11T18:15:38.040Z,8.40
2023-03-11T18:25:52.661Z,8.20
2023-03-11T18:29:16.419Z,8.20
2023-03-11T18:32:41.858Z,8.10
2023-03-11T18:36:17.639Z,8.10
2023-03-11T18:39:41.356Z,8.10
2023-03-11T18:43:05.748Z,8.00
2023-03-11T18:46:32.368Z,8.00
2023-03-11T18:49:57.272Z,7.90
2023-03-11T18:56:45.365Z,7.80
2023-03-11T19:00:10.961Z,7.80
2023-03-11T19:07:00.167Z,7.70
2023-03-11T19:13:48.393Z,7.50
2023-03-11T19:17:12.927Z,7.50
2023-03-11T19:20:36.489Z,7.50
2023-03-11T19:24:01.437Z,7.40
2023-03-11T19:27:25.025Z,7.30
2023-03-11T19:30:52.335Z,7.20
2023-03-11T19:34:16.005Z,7.10
2023-03-11T19:37:39.678Z,7.00
2023-03-11T19:41:08.798Z,7.00
2023-03-11T19:44:32.303Z,6.90
2023-03-11T19:47:56.576Z,6.90
2023-03-11T19:51:20.091Z,6.80
2023-03-11T19:54:44.210Z,6.80
2023-03-11T19:58:09.040Z,6.70
2023-03-11T20:01:32.629Z,6.60
2023-03-11T20:04:56.322Z,6.50
2023-03-11T20:08:22.647Z,6.40
2023-03-11T20:11:46.534Z,6.40
2023-03-11T20:15:12.568Z,6.30
2023-03-11T20:18:36.460Z,6.30
2023-03-11T20:22:00.025Z,6.30
2023-03-11T20:25:24.901Z,6.20
2023-03-11T20:28:48.742Z,6.20
2023-03-11T20:32:13.598Z,6.10
2023-03-11T20:35:37.237Z,6.10
2023-03-11T20:39:01.195Z,6.00
2023-03-11T20:42:25.456Z,5.90
2023-03-11T20:49:14.783Z,5.90
2023-03-11T20:52:38.441Z,5.80
2023-03-11T20:56:09.544Z,5.80
2023-03-11T20:59:33.287Z,5.70
2023-03-11T21:02:56.899Z,8.60
2023-03-11T21:06:24.741Z,5.60
2023-03-11T21:13:18.048Z,5.50
2023-03-11T21:16:42.637Z,5.50
2023-03-11T21:20:07.581Z,5.40
2023-03-11T21:23:32.507Z,5.40
2023-03-11T21:26:56.040Z,5.30
2023-03-11T21:30:19.961Z,5.40
2023-03-11T21:33:44.019Z,5.30
2023-03-11T21:37:07.879Z,5.30
2023-03-11T21:40:32.897Z,5.30
2023-03-11T21:43:58.273Z,5.30
2023-03-11T21:47:21.868Z,5.30
2023-03-11T21:50:45.702Z,5.30
2023-03-11T21:54:10.854Z,5.30
2023-03-11T21:57:35.806Z,5.30
2023-03-11T22:00:59.479Z,5.20
2023-03-11T22:07:48.603Z,5.20
2023-03-11T22:11:18.385Z,5.20
2023-03-11T22:14:43.711Z,5.10
2023-03-11T22:21:31.434Z,5.10
2023-03-11T22:24:54.983Z,5.10
2023-03-11T22:28:18.611Z,5.00
2023-03-11T22:31:43.508Z,5.00
2023-03-11T22:35:08.131Z,5.00
2023-03-11T22:38:32.575Z,4.90
2023-03-11T22:41:56.870Z,6.90
2023-03-11T22:45:22.256Z,4.80
2023-03-11T22:48:47.472Z,4.80
2023-03-11T22:52:11.072Z,4.70
2023-03-11T22:58:59.257Z,4.70
2023-03-11T23:02:22.907Z,4.60
2023-03-11T23:05:48.054Z,4.60
2023-03-11T23:09:11.582Z,4.50
2023-03-11T23:12:37.019Z,4.60
2023-03-11T23:16:05.502Z,4.60
2023-03-11T23:19:29.165Z,4.50
2023-03-11T23:22:54.250Z,4.50
2023-03-11T23:26:19.924Z,4.40
2023-03-11T23:29:44.313Z,4.40
2023-03-11T23:33:08.282Z,4.40
2023-03-11T23:36:32.973Z,4.40
2023-03-11T23:39:58.515Z,4.40
2023-03-11T23:43:22.087Z,4.30
2023-03-11T23:46:45.646Z,4.50
2023-03-11T23:50:10.722Z,4.60
2023-03-11T23:53:34.616Z,4.20
2023-03-11T23:56:59.480Z,4.20
